Time;durP1;ratioP1;P1;durP2;ratioP2;P2;SDS_P1;SDS_P2;PMS_P1;PMS_P2;Temp;Humidity;BMP_temperature;BMP_pressure;BME280_temperature;BME280_humidity;BME280_pressure;Samples;Min_cycle;Max_cycle;Signal;HPM_P1;HPM_P2
2023/07/28 00:00:28;;;;;;;4.50;2.87;;;;;;;;;;5012859;28;20446;-56
2023/07/28 00:02:54;;;;;;;3.10;2.90;;;;;;;;;;5012817;28;20437;-57
2023/07/28 00:05:20;;;;;;;3.10;3.00;;;;;;;;;;5012850;28;20442;-58
2023/07/28 00:07:48;;;;;;;9.00;3.07;;;;;;;;;;5012155;28;20431;-58
2023/07/28 00:10:14;;;;;;;3.70;3.50;;;;;;;;;;5012694;28;20486;-58
2023/07/28 00:12:40;;;;;;;3.70;3.50;;;;;;;;;;5012350;28;20859;-56
2023/07/28 00:15:06;;;;;;;3.73;3.60;;;;;;;;;;5012297;28;20459;-57
2023/07/28 00:17:32;;;;;;;6.10;3.30;;;;;;;;;;5012542;28;20438;-57
2023/07/28 00:19:58;;;;;;;3.30;3.10;;;;;;;;;;5012139;28;20770;-56
2023/07/28 00:22:27;;;;;;;8.07;3.30;;;;;;;;;;5012347;28;20432;-56
2023/07/28 00:24:53;;;;;;;2.90;2.80;;;;;;;;;;5011390;28;20443;-57
2023/07/28 00:27:19;;;;;;;3.17;2.97;;;;;;;;;;5012468;28;20424;-56
2023/07/28 00:29:45;;;;;;;3.83;3.50;;;;;;;;;;5012539;28;20419;-58
2023/07/28 00:32:13;;;;;;;3.43;3.23;;;;;;;;;;5012382;28;20458;-57
2023/07/28 00:34:41;;;;;;;3.00;2.90;;;;;;;;;;5012206;28;20418;-56
2023/07/28 00:37:07;;;;;;;7.23;2.97;;;;;;;;;;5012383;28;20468;-57
2023/07/28 00:39:33;;;;;;;3.30;3.20;;;;;;;;;;5010397;28;20454;-57
2023/07/28 00:41:59;;;;;;;2.97;2.87;;;;;;;;;;5012113;28;20430;-57
2023/07/28 00:44:27;;;;;;;2.90;2.70;;;;;;;;;;5012118;28;20419;-56
2023/07/28 00:46:53;;;;;;;3.03;2.93;;;;;;;;;;5012314;28;20423;-57
2023/07/28 00:49:19;;;;;;;3.10;3.00;;;;;;;;;;5011761;28;20802;-57
2023/07/28 00:51:48;;;;;;;4.17;2.77;;;;;;;;;;5012346;28;20482;-57
2023/07/28 00:54:16;;;;;;;3.93;3.30;;;;;;;;;;5012344;28;20414;-58
2023/07/28 00:56:42;;;;;;;3.80;3.60;;;;;;;;;;5012430;28;20906;-57
2023/07/28 00:59:08;;;;;;;3.67;3.17;;;;;;;;;;5012280;28;20461;-57
2023/07/28 01:01:34;;;;;;;4.43;2.90;;;;;;;;;;5012938;28;20483;-57
2023/07/28 01:04:00;;;;;;;3.57;3.37;;;;;;;;;;5016137;28;20432;-57
2023/07/28 01:06:27;;;;;;;2.90;2.80;;;;;;;;;;5016175;28;20465;-58
2023/07/28 01:08:57;;;;;;;3.33;3.00;;;;;;;;;;5014757;28;20418;-57
2023/07/28 01:11:23;;;;;;;3.30;3.10;;;;;;;;;;5014836;28;20725;-57
2023/07/28 01:13:49;;;;;;;3.13;2.97;;;;;;;;;;5015951;28;20484;-57
2023/07/28 01:16:15;;;;;;;3.20;3.10;;;;;;;;;;5015935;28;20413;-58
2023/07/28 01:18:41;;;;;;;3.60;3.30;;;;;;;;;;5015643;28;20459;-57
2023/07/28 01:21:08;;;;;;;3.20;3.10;;;;;;;;;;5015520;28;20465;-57
2023/07/28 01:24:00;;;;;;;4.07;3.60;;;;;;;;;;5015589;28;20414;-57
2023/07/28 01:26:35;;;;;;;3.73;3.63;;;;;;;;;;5015953;28;20395;-58
2023/07/28 01:29:02;;;;;;;3.87;3.77;;;;;;;;;;5014643;28;20463;-68
2023/07/28 01:31:28;;;;;;;3.80;3.60;;;;;;;;;;5013660;28;20520;-67
2023/07/28 01:33:54;;;;;;;3.77;3.60;;;;;;;;;;5014831;28;20500;-67
2023/07/28 01:36:20;;;;;;;3.40;3.10;;;;;;;;;;5014901;28;20824;-67
2023/07/28 01:38:46;;;;;;;3.43;3.23;;;;;;;;;;5014916;28;20421;-67
2023/07/28 01:41:14;;;;;;;3.43;3.00;;;;;;;;;;5014846;28;20434;-67
2023/07/28 01:43:41;;;;;;;4.00;3.50;;;;;;;;;;5015265;28;20496;-68
2023/07/28 01:46:08;;;;;;;3.57;3.27;;;;;;;;;;5014656;28;20428;-67
2023/07/28 01:48:34;;;;;;;9.20;3.57;;;;;;;;;;5014772;28;20896;-67
2023/07/28 01:51:00;;;;;;;3.17;3.07;;;;;;;;;;5014365;28;20463;-67
2023/07/28 01:53:26;;;;;;;8.73;3.60;;;;;;;;;;5014770;28;20549;-67
2023/07/28 01:55:54;;;;;;;3.40;3.20;;;;;;;;;;5014869;28;20569;-67
2023/07/28 01:58:20;;;;;;;3.77;3.67;;;;;;;;;;5014825;28;20902;-67
2023/07/28 02:00:49;;;;;;;3.50;3.20;;;;;;;;;;5014647;28;20417;-68
2023/07/28 02:03:19;;;;;;;3.77;3.47;;;;;;;;;;5015146;28;20444;-67
2023/07/28 02:05:45;;;;;;;3.23;3.00;;;;;;;;;;5014721;28;20436;-67
2023/07/28 02:08:11;;;;;;;2.97;2.87;;;;;;;;;;5014176;28;20461;-67
2023/07/28 02:10:37;;;;;;;4.67;3.37;;;;;;;;;;5014820;28;20444;-67
2023/07/28 02:13:03;;;;;;;3.80;3.23;;;;;;;;;;5013112;28;20841;-67
2023/07/28 02:15:32;;;;;;;3.47;3.27;;;;;;;;;;5014241;28;20409;-67
2023/07/28 02:17:58;;;;;;;3.87;3.30;;;;;;;;;;5014076;28;20868;-67
2023/07/28 02:20:24;;;;;;;4.00;3.43;;;;;;;;;;5014416;28;20470;-67
2023/07/28 02:22:50;;;;;;;3.03;2.83;;;;;;;;;;5014622;28;20424;-68
2023/07/28 02:25:16;;;;;;;4.23;3.13;;;;;;;;;;5014931;28;20414;-67
2023/07/28 02:27:44;;;;;;;3.33;3.13;;;;;;;;;;5014201;28;20412;-67
2023/07/28 02:30:10;;;;;;;3.00;2.80;;;;;;;;;;5014260;28;20454;-67
2023/07/28 02:32:37;;;;;;;3.20;3.10;;;;;;;;;;5014239;28;20487;-67
2023/07/28 02:35:03;;;;;;;7.20;3.70;;;;;;;;;;5013351;28;20420;-68
2023/07/28 02:37:29;;;;;;;2.90;2.80;;;;;;;;;;5013694;28;20427;-67
2023/07/28 02:39:55;;;;;;;3.33;3.20;;;;;;;;;;5012426;28;20417;-68
2023/07/28 02:42:23;;;;;;;3.47;3.10;;;;;;;;;;5013590;28;20466;-68
2023/07/28 02:44:49;;;;;;;3.83;3.63;;;;;;;;;;5013593;28;20425;-68
2023/07/28 02:47:18;;;;;;;3.50;3.20;;;;;;;;;;5013554;28;20423;-68
2023/07/28 02:49:44;;;;;;;2.83;2.73;;;;;;;;;;5013340;28;20428;-67
2023/07/28 02:52:12;;;;;;;3.50;3.20;;;;;;;;;;5013593;28;20423;-68
2023/07/28 02:54:38;;;;;;;3.40;3.10;;;;;;;;;;5013698;28;20780;-68
2023/07/28 02:57:04;;;;;;;5.67;3.53;;;;;;;;;;5013932;28;20416;-68
2023/07/28 02:59:30;;;;;;;3.40;3.20;;;;;;;;;;5014216;28;20409;-67
2023/07/28 03:01:57;;;;;;;4.20;3.90;;;;;;;;;;5013805;28;20439;-68
2023/07/28 03:04:23;;;;;;;3.43;3.23;;;;;;;;;;5013743;28;20498;-67
2023/07/28 03:06:49;;;;;;;4.43;3.40;;;;;;;;;;5013380;28;20854;-67
2023/07/28 03:09:15;;;;;;;5.13;2.97;;;;;;;;;;5012746;28;20788;-67
2023/07/28 03:11:45;;;;;;;3.07;2.97;;;;;;;;;;5012474;28;20502;-68
2023/07/28 03:14:12;;;;;;;4.10;3.80;;;;;;;;;;5013333;28;20477;-68
2023/07/28 03:16:38;;;;;;;3.87;3.53;;;;;;;;;;5013460;28;20397;-68
2023/07/28 03:19:07;;;;;;;2.90;2.80;;;;;;;;;;5013153;28;20420;-68
2023/07/28 03:21:33;;;;;;;4.10;3.70;;;;;;;;;;5013342;28;20902;-67
2023/07/28 03:23:59;;;;;;;4.73;3.57;;;;;;;;;;5013239;28;20426;-67
2023/07/28 03:26:25;;;;;;;5.83;3.10;;;;;;;;;;5013201;28;20456;-67
2023/07/28 03:28:51;;;;;;;7.20;3.07;;;;;;;;;;5012576;28;20441;-67
2023/07/28 03:31:17;;;;;;;9.23;3.13;;;;;;;;;;5012494;28;20424;-68
2023/07/28 03:33:43;;;;;;;3.40;3.30;;;;;;;;;;5011811;28;20567;-67
2023/07/28 03:36:09;;;;;;;3.17;3.07;;;;;;;;;;5012968;28;20427;-67
2023/07/28 03:38:35;;;;;;;3.93;3.57;;;;;;;;;;5011745;28;20428;-67
2023/07/28 03:41:01;;;;;;;3.00;3.00;;;;;;;;;;5013065;28;20514;-67
2023/07/28 03:43:29;;;;;;;8.80;3.30;;;;;;;;;;5012214;28;20426;-67
2023/07/28 03:45:55;;;;;;;8.87;3.13;;;;;;;;;;5012906;28;20795;-67
2023/07/28 03:48:21;;;;;;;3.87;3.67;;;;;;;;;;5012722;28;20442;-69
2023/07/28 03:50:55;;;;;;;4.00;3.70;;;;;;;;;;5011570;28;20428;-67
2023/07/28 03:53:21;;;;;;;3.90;3.60;;;;;;;;;;5012668;28;20483;-68
2023/07/28 03:55:47;;;;;;;3.97;3.63;;;;;;;;;;5012951;28;20501;-67
2023/07/28 03:58:13;;;;;;;9.07;3.50;;;;;;;;;;5011611;28;20915;-67
2023/07/28 04:00:39;;;;;;;4.20;3.33;;;;;;;;;;5012600;28;20470;-67
2023/07/28 04:03:05;;;;;;;5.43;3.83;;;;;;;;;;5012578;28;20550;-67
2023/07/28 04:05:30;;;;;;;13.93;12.60;;;;;;;;;;5013066;28;20911;-68
2023/07/28 04:07:56;;;;;;;7.30;3.40;;;;;;;;;;5012632;28;20416;-67
2023/07/28 04:10:23;;;;;;;11.07;8.70;;;;;;;;;;5011990;28;20443;-68
2023/07/28 04:12:51;;;;;;;4.37;4.17;;;;;;;;;;5012651;28;20495;-67
2023/07/28 04:15:17;;;;;;;4.30;4.00;;;;;;;;;;5012288;28;20409;-70
2023/07/28 04:17:43;;;;;;;3.97;3.57;;;;;;;;;;5012056;28;20445;-67
2023/07/28 04:20:09;;;;;;;3.77;3.47;;;;;;;;;;5010985;28;20421;-67
2023/07/28 04:22:37;;;;;;;3.23;3.13;;;;;;;;;;5012563;28;20429;-67
2023/07/28 04:25:03;;;;;;;3.53;3.23;;;;;;;;;;5011222;28;20444;-67
2023/07/28 04:27:29;;;;;;;3.30;3.13;;;;;;;;;;5012347;28;20450;-67
2023/07/28 04:29:55;;;;;;;4.13;3.73;;;;;;;;;;5012303;28;20426;-67
2023/07/28 04:32:24;;;;;;;4.07;3.70;;;;;;;;;;5012260;28;20476;-67
2023/07/28 04:34:50;;;;;;;7.77;7.00;;;;;;;;;;5011725;28;20447;-67
2023/07/28 04:37:19;;;;;;;19.43;15.20;;;;;;;;;;5010338;28;20914;-67
2023/07/28 04:39:45;;;;;;;6.73;5.80;;;;;;;;;;5012039;28;20415;-67
2023/07/28 04:42:11;;;;;;;5.80;5.60;;;;;;;;;;5011852;28;20989;-68
2023/07/28 04:44:40;;;;;;;4.20;3.90;;;;;;;;;;5011932;28;20534;-67
2023/07/28 04:47:08;;;;;;;10.03;5.43;;;;;;;;;;5011990;28;20406;-68
2023/07/28 04:49:34;;;;;;;4.67;4.23;;;;;;;;;;5011637;28;20440;-67
2023/07/28 04:52:00;;;;;;;17.27;6.27;;;;;;;;;;5010437;28;20446;-67
2023/07/28 04:54:26;;;;;;;8.43;7.50;;;;;;;;;;5011769;28;20516;-68
2023/07/28 04:56:53;;;;;;;15.93;13.83;;;;;;;;;;5012073;28;20441;-67
2023/07/28 04:59:19;;;;;;;6.10;5.60;;;;;;;;;;5010544;28;20452;-67
2023/07/28 05:01:45;;;;;;;4.13;3.83;;;;;;;;;;5011662;28;20429;-67
2023/07/28 05:04:11;;;;;;;3.70;3.50;;;;;;;;;;5011966;28;20624;-67
2023/07/28 05:06:37;;;;;;;2.80;2.70;;;;;;;;;;5011736;28;20578;-67
2023/07/28 05:09:03;;;;;;;4.40;2.80;;;;;;;;;;5011041;28;20429;-68
2023/07/28 05:11:29;;;;;;;2.53;2.33;;;;;;;;;;5011887;28;20472;-68
2023/07/28 05:13:55;;;;;;;2.50;2.50;;;;;;;;;;5011076;28;20508;-68
2023/07/28 05:16:23;;;;;;;2.40;2.30;;;;;;;;;;5011688;28;20493;-68
2023/07/28 05:18:49;;;;;;;3.40;2.70;;;;;;;;;;5010116;28;20467;-68
2023/07/28 05:21:18;;;;;;;2.60;2.50;;;;;;;;;;5011615;28;20903;-67
2023/07/28 05:23:43;;;;;;;3.53;2.70;;;;;;;;;;5011659;28;20505;-67
2023/07/28 05:26:09;;;;;;;2.60;2.40;;;;;;;;;;5011826;28;20543;-67
2023/07/28 05:28:35;;;;;;;2.63;2.00;;;;;;;;;;5011614;28;20449;-67
2023/07/28 05:31:08;;;;;;;7.03;2.73;;;;;;;;;;5011707;28;20443;-67
2023/07/28 05:33:34;;;;;;;2.50;2.30;;;;;;;;;;5011679;28;21011;-66
2023/07/28 05:36:07;;;;;;;2.83;2.63;;;;;;;;;;5011775;28;20790;-66
2023/07/28 05:38:34;;;;;;;2.43;2.23;;;;;;;;;;5010559;28;20432;-67
2023/07/28 05:41:00;;;;;;;2.50;2.40;;;;;;;;;;5011779;28;20497;-65
2023/07/28 05:43:27;;;;;;;2.03;1.93;;;;;;;;;;5011553;28;20441;-66
2023/07/28 05:45:55;;;;;;;2.40;2.17;;;;;;;;;;5011692;28;20442;-66
2023/07/28 05:48:23;;;;;;;2.87;2.77;;;;;;;;;;5013371;28;20452;-66
2023/07/28 05:50:51;;;;;;;3.17;2.20;;;;;;;;;;5015123;28;20990;-65
2023/07/28 05:53:17;;;;;;;2.57;2.47;;;;;;;;;;5015192;28;20474;-66
2023/07/28 05:55:43;;;;;;;7.80;2.07;;;;;;;;;;5015176;28;20964;-65
2023/07/28 05:58:09;;;;;;;5.90;2.63;;;;;;;;;;5015195;28;20497;-66
2023/07/28 06:00:35;;;;;;;1.73;1.73;;;;;;;;;;5015211;28;20511;-65
2023/07/28 06:03:01;;;;;;;2.97;2.87;;;;;;;;;;5015047;28;20445;-65
2023/07/28 06:05:27;;;;;;;2.93;2.03;;;;;;;;;;5015051;28;20426;-66
2023/07/28 06:07:53;;;;;;;2.90;2.80;;;;;;;;;;5015038;28;20894;-65
2023/07/28 06:10:19;;;;;;;2.40;2.20;;;;;;;;;;5014939;28;20409;-66
2023/07/28 06:12:45;;;;;;;3.53;2.37;;;;;;;;;;5014828;28;20860;-66
2023/07/28 06:15:11;;;;;;;2.23;2.13;;;;;;;;;;5013475;28;20439;-66
2023/07/28 06:17:37;;;;;;;2.43;2.43;;;;;;;;;;5014782;28;20980;-66
2023/07/28 06:20:03;;;;;;;2.60;2.60;;;;;;;;;;5014532;28;20516;-66
2023/07/28 06:22:29;;;;;;;2.50;2.50;;;;;;;;;;5014890;28;20423;-66
2023/07/28 06:24:55;;;;;;;3.33;2.87;;;;;;;;;;5015097;28;20463;-66
2023/07/28 06:27:21;;;;;;;2.60;2.60;;;;;;;;;;5014726;28;20887;-67
2023/07/28 06:29:50;;;;;;;3.47;2.17;;;;;;;;;;5013622;28;20479;-65
2023/07/28 06:32:16;;;;;;;2.80;2.70;;;;;;;;;;5014929;28;20435;-66
2023/07/28 06:34:44;;;;;;;2.77;2.57;;;;;;;;;;5014748;28;20416;-66
2023/07/28 06:37:10;;;;;;;3.07;2.30;;;;;;;;;;5014627;28;20412;-66
2023/07/28 06:39:39;;;;;;;2.70;2.47;;;;;;;;;;5013534;28;20478;-66
2023/07/28 06:42:05;;;;;;;2.40;2.00;;;;;;;;;;5014747;28;20490;-66
2023/07/28 06:44:31;;;;;;;2.40;2.40;;;;;;;;;;5014771;28;20925;-66
2023/07/28 06:46:57;;;;;;;2.17;2.10;;;;;;;;;;5014350;28;20421;-66
2023/07/28 06:49:26;;;;;;;2.97;2.97;;;;;;;;;;5014581;28;20532;-66
2023/07/28 06:51:54;;;;;;;2.50;2.40;;;;;;;;;;5014282;28;20416;-65
2023/07/28 06:54:20;;;;;;;2.30;2.20;;;;;;;;;;5014232;28;20482;-65
2023/07/28 06:56:46;;;;;;;2.37;2.17;;;;;;;;;;5014672;28;20788;-66
2023/07/28 06:59:12;;;;;;;2.80;2.70;;;;;;;;;;5013651;28;20436;-66
2023/07/28 07:01:38;;;;;;;2.90;2.50;;;;;;;;;;5013950;28;20421;-66
2023/07/28 07:04:06;;;;;;;3.37;3.07;;;;;;;;;;5014392;28;20440;-66
2023/07/28 07:06:32;;;;;;;3.13;2.70;;;;;;;;;;5014493;28;20397;-66
2023/07/28 07:08:58;;;;;;;2.73;2.63;;;;;;;;;;5014171;28;20448;-66
2023/07/28 07:11:24;;;;;;;3.17;3.07;;;;;;;;;;5014286;28;20439;-66
2023/07/28 07:13:50;;;;;;;3.00;2.90;;;;;;;;;;5013502;28;21055;-66
2023/07/28 07:16:18;;;;;;;2.30;2.30;;;;;;;;;;5013883;28;20414;-66
2023/07/28 07:18:44;;;;;;;2.87;2.87;;;;;;;;;;5013841;28;20528;-65
2023/07/28 07:21:10;;;;;;;3.00;2.90;;;;;;;;;;5012516;28;20949;-66
2023/07/28 07:23:37;;;;;;;3.00;3.00;;;;;;;;;;5014372;28;20463;-65
2023/07/28 07:26:03;;;;;;;4.13;3.50;;;;;;;;;;5013802;28;20464;-67
2023/07/28 07:28:29;;;;;;;3.17;3.07;;;;;;;;;;5013549;28;20423;-66
2023/07/28 07:30:56;;;;;;;3.20;2.90;;;;;;;;;;5013423;28;20478;-67
2023/07/28 07:33:22;;;;;;;4.20;3.10;;;;;;;;;;5013511;28;20466;-66
2023/07/28 07:35:48;;;;;;;3.77;3.10;;;;;;;;;;5013686;28;20430;-66
2023/07/28 07:38:16;;;;;;;3.03;2.93;;;;;;;;;;5012486;28;20442;-66
2023/07/28 07:40:42;;;;;;;6.40;3.13;;;;;;;;;;5013029;28;20422;-65
2023/07/28 07:43:08;;;;;;;3.10;3.00;;;;;;;;;;5013849;28;20503;-65
2023/07/28 07:45:34;;;;;;;3.43;3.07;;;;;;;;;;5013557;28;20446;-66
2023/07/28 07:48:03;;;;;;;3.07;2.97;;;;;;;;;;5013698;28;20433;-65
2023/07/28 07:50:31;;;;;;;4.90;4.00;;;;;;;;;;5013517;28;20448;-65
2023/07/28 07:52:57;;;;;;;3.10;3.00;;;;;;;;;;5013268;28;20474;-66
2023/07/28 07:55:23;;;;;;;3.20;3.10;;;;;;;;;;5013396;28;20444;-66
2023/07/28 07:57:49;;;;;;;3.50;3.17;;;;;;;;;;5013088;28;20437;-66
2023/07/28 08:00:15;;;;;;;3.23;3.17;;;;;;;;;;5011559;28;20427;-65
2023/07/28 08:02:41;;;;;;;4.10;3.33;;;;;;;;;;5013015;28;20476;-65
2023/07/28 08:05:08;;;;;;;5.87;3.30;;;;;;;;;;5012776;28;20491;-67
2023/07/28 08:07:36;;;;;;;3.07;2.97;;;;;;;;;;5013260;28;20497;-66
2023/07/28 08:10:02;;;;;;;3.63;3.33;;;;;;;;;;5012046;28;20598;-65
2023/07/28 08:12:31;;;;;;;4.33;3.40;;;;;;;;;;5011838;28;20559;-65
2023/07/28 08:14:57;;;;;;;3.13;3.03;;;;;;;;;;5011947;28;20835;-65
2023/07/28 08:17:25;;;;;;;3.37;3.27;;;;;;;;;;5013220;28;20437;-65
2023/07/28 08:19:51;;;;;;;3.33;3.13;;;;;;;;;;5013127;28;20560;-66
2023/07/28 08:22:20;;;;;;;3.10;3.10;;;;;;;;;;5013250;28;20475;-66
2023/07/28 08:24:46;;;;;;;3.23;3.03;;;;;;;;;;5012967;28;20495;-66
2023/07/28 08:27:12;;;;;;;3.97;3.57;;;;;;;;;;5013145;28;20490;-66
2023/07/28 08:29:38;;;;;;;3.73;3.30;;;;;;;;;;5011747;28;20510;-66
2023/07/28 08:32:06;;;;;;;3.87;3.57;;;;;;;;;;5012876;28;20771;-66
2023/07/28 08:34:32;;;;;;;3.27;3.07;;;;;;;;;;5012876;28;20432;-66
2023/07/28 08:36:58;;;;;;;2.70;2.60;;;;;;;;;;5012678;28;20446;-65
2023/07/28 08:39:26;;;;;;;3.00;2.90;;;;;;;;;;5012659;28;20439;-66
2023/07/28 08:42:03;;;;;;;9.87;3.47;;;;;;;;;;5013023;28;20413;-65
2023/07/28 08:44:32;;;;;;;3.17;2.63;;;;;;;;;;5012680;28;20477;-65
2023/07/28 08:47:01;;;;;;;5.47;3.00;;;;;;;;;;5012700;28;20496;-66
2023/07/28 08:49:27;;;;;;;2.97;2.87;;;;;;;;;;5011702;28;20416;-66
2023/07/28 08:51:57;;;;;;;5.53;2.90;;;;;;;;;;5011913;28;20523;-66
2023/07/28 08:54:23;;;;;;;2.80;2.70;;;;;;;;;;5013026;28;20517;-66
2023/07/28 08:56:50;;;;;;;2.90;2.50;;;;;;;;;;5012607;28;20412;-66
2023/07/28 08:59:23;;;;;;;2.90;2.80;;;;;;;;;;5012894;28;20406;-65
2023/07/28 09:02:01;;;;;;;2.47;2.40;;;;;;;;;;5012694;28;20453;-66
2023/07/28 09:04:27;;;;;;;2.70;2.60;;;;;;;;;;5012578;28;20861;-65
2023/07/28 09:06:53;;;;;;;2.50;2.40;;;;;;;;;;5012573;28;20851;-65
2023/07/28 09:09:22;;;;;;;2.20;2.20;;;;;;;;;;5012642;28;20429;-65
2023/07/28 09:11:49;;;;;;;2.70;2.60;;;;;;;;;;5011522;28;20926;-66
2023/07/28 09:14:16;;;;;;;2.90;2.80;;;;;;;;;;5011973;28;20472;-67
2023/07/28 09:16:42;;;;;;;2.70;2.50;;;;;;;;;;5012417;28;20436;-66
2023/07/28 09:19:09;;;;;;;2.33;2.23;;;;;;;;;;5011453;28;20847;-66
2023/07/28 09:21:35;;;;;;;3.60;2.43;;;;;;;;;;5012462;28;20571;-65
2023/07/28 09:24:04;;;;;;;2.80;2.70;;;;;;;;;;5015063;28;20420;-65
2023/07/28 09:26:50;;;;;;;2.50;2.40;;;;;;;;;;5015914;28;20437;-66
2023/07/28 09:29:16;;;;;;;2.50;2.50;;;;;;;;;;5016360;28;20439;-66
2023/07/28 09:31:45;;;;;;;6.93;2.67;;;;;;;;;;5015599;28;20833;-58
2023/07/28 09:34:13;;;;;;;5.33;2.77;;;;;;;;;;5015091;28;20829;-59
2023/07/28 09:36:39;;;;;;;2.50;2.00;;;;;;;;;;5014819;28;20441;-59
2023/07/28 09:39:09;;;;;;;2.27;2.03;;;;;;;;;;5015764;28;20459;-59
2023/07/28 09:41:39;;;;;;;2.40;2.40;;;;;;;;;;5015706;28;20440;-59
2023/07/28 09:44:06;;;;;;;3.03;2.70;;;;;;;;;;5015802;28;20914;-59
2023/07/28 09:46:38;;;;;;;2.90;2.70;;;;;;;;;;5013726;28;20451;-59
2023/07/28 09:49:13;;;;;;;2.50;2.40;;;;;;;;;;5015629;28;20416;-59
2023/07/28 09:51:42;;;;;;;3.10;2.80;;;;;;;;;;5015858;28;20442;-59
2023/07/28 09:54:12;;;;;;;2.97;2.97;;;;;;;;;;5015240;28;20480;-59
2023/07/28 09:56:41;;;;;;;6.00;2.77;;;;;;;;;;5015651;28;20444;-59
2023/07/28 09:59:11;;;;;;;5.50;2.90;;;;;;;;;;5014025;28;20474;-60
2023/07/28 10:01:38;;;;;;;7.10;2.83;;;;;;;;;;5015471;28;21052;-61
2023/07/28 10:04:04;;;;;;;3.00;2.83;;;;;;;;;;5015427;28;20883;-59
2023/07/28 10:06:31;;;;;;;2.70;2.60;;;;;;;;;;5014977;28;20413;-61
2023/07/28 10:08:59;;;;;;;2.63;2.63;;;;;;;;;;5014879;28;20425;-59
2023/07/28 10:11:26;;;;;;;2.53;2.33;;;;;;;;;;5015223;28;20509;-59
2023/07/28 10:13:55;;;;;;;2.70;2.50;;;;;;;;;;5015225;28;20469;-59
2023/07/28 10:16:30;;;;;;;3.60;3.27;;;;;;;;;;5015130;28;20436;-59
2023/07/28 10:18:56;;;;;;;2.57;2.47;;;;;;;;;;5013802;28;20428;-59
2023/07/28 10:21:27;;;;;;;2.40;2.20;;;;;;;;;;5014072;28;20440;-59
2023/07/28 10:23:57;;;;;;;2.47;2.20;;;;;;;;;;5014993;28;20511;-59
2023/07/28 10:26:35;;;;;;;2.37;2.27;;;;;;;;;;5014527;28;20424;-59
2023/07/28 10:29:10;;;;;;;3.40;2.50;;;;;;;;;;5014726;28;20499;-59
2023/07/28 10:31:49;;;;;;;2.30;2.27;;;;;;;;;;5015067;28;20443;-59
2023/07/28 10:34:19;;;;;;;3.13;2.97;;;;;;;;;;5012332;28;20473;-59
2023/07/28 10:36:45;;;;;;;2.73;2.60;;;;;;;;;;5014429;28;20429;-59
2023/07/28 10:39:14;;;;;;;3.07;1.97;;;;;;;;;;5014429;28;20902;-59
2023/07/28 10:42:00;;;;;;;3.53;2.60;;;;;;;;;;5014810;28;20429;-59
2023/07/28 10:44:26;;;;;;;2.20;2.10;;;;;;;;;;5013427;28;20444;-59
2023/07/28 10:46:52;;;;;;;2.67;2.57;;;;;;;;;;5012772;28;20431;-61
2023/07/28 10:49:23;;;;;;;2.83;2.63;;;;;;;;;;5014263;28;20890;-59
2023/07/28 10:51:49;;;;;;;2.80;2.53;;;;;;;;;;5014764;28;20509;-59
2023/07/28 10:54:18;;;;;;;2.30;2.20;;;;;;;;;;5014331;28;20939;-59
2023/07/28 10:56:44;;;;;;;5.60;2.60;;;;;;;;;;5014717;28;20432;-59
2023/07/28 10:59:10;;;;;;;4.13;3.00;;;;;;;;;;5014414;28;20879;-59
2023/07/28 11:01:37;;;;;;;3.10;2.60;;;;;;;;;;5014404;28;20416;-59
2023/07/28 11:04:13;;;;;;;4.33;4.03;;;;;;;;;;5014514;28;20410;-59
2023/07/28 11:06:44;;;;;;;2.97;2.77;;;;;;;;;;5014454;28;20477;-58
2023/07/28 11:09:10;;;;;;;2.70;2.60;;;;;;;;;;5014385;28;20852;-59
2023/07/28 11:11:37;;;;;;;2.40;2.40;;;;;;;;;;5014306;28;20919;-58
2023/07/28 11:14:07;;;;;;;2.20;2.20;;;;;;;;;;5013990;28;20474;-59
2023/07/28 11:16:42;;;;;;;2.70;2.33;;;;;;;;;;5014215;28;20414;-59
2023/07/28 11:19:10;;;;;;;4.80;2.90;;;;;;;;;;5013956;28;20499;-59
2023/07/28 11:21:37;;;;;;;3.80;2.90;;;;;;;;;;5013767;28;20409;-58
2023/07/28 11:24:03;;;;;;;2.70;2.60;;;;;;;;;;5013795;28;20465;-59
2023/07/28 11:26:30;;;;;;;2.87;2.77;;;;;;;;;;5013296;28;20555;-58
2023/07/28 11:28:56;;;;;;;3.20;3.10;;;;;;;;;;5012690;28;20593;-59
2023/07/28 11:31:25;;;;;;;4.57;3.27;;;;;;;;;;5013719;28;20411;-59
2023/07/28 11:33:53;;;;;;;8.10;3.20;;;;;;;;;;5013898;28;20804;-58
2023/07/28 11:36:37;;;;;;;3.77;3.37;;;;;;;;;;5013849;28;20460;-58
2023/07/28 11:39:08;;;;;;;6.93;3.33;;;;;;;;;;5013923;28;20397;-58
2023/07/28 11:41:34;;;;;;;3.27;3.07;;;;;;;;;;5012963;28;20495;-58
2023/07/28 11:44:01;;;;;;;3.33;3.13;;;;;;;;;;5013754;28;20847;-59
2023/07/28 11:46:38;;;;;;;2.77;2.77;;;;;;;;;;5013541;28;20590;-58
2023/07/28 11:49:15;;;;;;;3.57;3.23;;;;;;;;;;5013692;28;20413;-59
2023/07/28 11:51:44;;;;;;;5.13;3.40;;;;;;;;;;5014117;28;20432;-59
2023/07/28 11:54:16;;;;;;;3.23;3.13;;;;;;;;;;5013722;28;20560;-59
2023/07/28 11:56:43;;;;;;;5.00;3.77;;;;;;;;;;5013874;28;20810;-59
2023/07/28 11:59:09;;;;;;;3.53;3.33;;;;;;;;;;5014297;28;20792;-59
2023/07/28 12:01:51;;;;;;;3.63;3.50;;;;;;;;;;5011903;28;20421;-59
2023/07/28 12:04:24;;;;;;;3.17;3.07;;;;;;;;;;5013205;28;20413;-59
2023/07/28 12:07:11;;;;;;;3.40;3.20;;;;;;;;;;5013305;28;20443;-59
2023/07/28 12:09:48;;;;;;;3.10;3.00;;;;;;;;;;5013420;28;20779;-59
2023/07/28 12:12:14;;;;;;;3.13;3.03;;;;;;;;;;5012907;28;20414;-59
2023/07/28 12:14:40;;;;;;;3.80;3.57;;;;;;;;;;5011959;28;20437;-59
2023/07/28 12:17:17;;;;;;;5.37;3.77;;;;;;;;;;5013027;28;20433;-59
2023/07/28 12:20:05;;;;;;;3.90;3.70;;;;;;;;;;5013197;28;20405;-61
2023/07/28 12:22:32;;;;;;;4.13;3.80;;;;;;;;;;5012858;28;20491;-60
2023/07/28 12:24:58;;;;;;;8.77;4.07;;;;;;;;;;5013086;28;20936;-60
2023/07/28 12:27:25;;;;;;;3.67;3.47;;;;;;;;;;5012727;28;20437;-60
2023/07/28 12:29:51;;;;;;;3.27;3.17;;;;;;;;;;5012918;28;20412;-60
2023/07/28 12:38:24;;;;;;;2.97;2.83;;;;;;;;;;4993264;28;20490;-60
2023/07/28 12:40:50;;;;;;;2.63;2.53;;;;;;;;;;4993794;28;20454;-60
2023/07/28 12:43:16;;;;;;;2.70;2.60;;;;;;;;;;4993353;28;20505;-59
2023/07/28 12:45:44;;;;;;;3.13;3.03;;;;;;;;;;4993234;28;20411;-59
2023/07/28 12:48:10;;;;;;;3.40;3.20;;;;;;;;;;4993077;28;20433;-59
2023/07/28 12:50:36;;;;;;;7.03;3.13;;;;;;;;;;4991962;28;20424;-60
2023/07/28 12:53:03;;;;;;;3.20;3.10;;;;;;;;;;4993139;28;20488;-59
2023/07/28 12:55:29;;;;;;;5.07;3.03;;;;;;;;;;4993110;28;20441;-60
2023/07/28 12:57:55;;;;;;;2.97;2.97;;;;;;;;;;4994301;28;20439;-60
2023/07/28 13:00:21;;;;;;;3.43;3.23;;;;;;;;;;4997151;28;20485;-60
2023/07/28 13:02:47;;;;;;;3.57;3.47;;;;;;;;;;4997251;28;20468;-61
2023/07/28 13:05:15;;;;;;;3.00;2.90;;;;;;;;;;4997181;28;20500;-60
2023/07/28 13:07:41;;;;;;;6.07;2.83;;;;;;;;;;4997052;28;20443;-59
2023/07/28 13:10:09;;;;;;;3.70;3.43;;;;;;;;;;4997019;28;20884;-59
2023/07/28 13:12:35;;;;;;;3.20;3.10;;;;;;;;;;4996846;28;20479;-60
2023/07/28 13:15:02;;;;;;;2.90;2.80;;;;;;;;;;4995690;28;20418;-59
2023/07/28 13:17:30;;;;;;;5.63;3.30;;;;;;;;;;4996678;28;20433;-60
2023/07/28 13:19:57;;;;;;;6.53;3.60;;;;;;;;;;4996666;28;20452;-60
2023/07/28 13:22:23;;;;;;;2.83;2.80;;;;;;;;;;4995134;28;20452;-59
2023/07/28 13:24:49;;;;;;;2.77;2.73;;;;;;;;;;4995416;28;20444;-60
2023/07/28 13:27:15;;;;;;;2.73;2.63;;;;;;;;;;4996583;28;20413;-60
2023/07/28 13:29:41;;;;;;;3.57;2.80;;;;;;;;;;4996595;28;20439;-60
2023/07/28 13:32:16;;;;;;;9.40;8.50;;;;;;;;;;4996286;28;20416;-60
2023/07/28 13:34:42;;;;;;;5.03;3.03;;;;;;;;;;4996266;28;20429;-62
2023/07/28 13:37:08;;;;;;;2.90;2.80;;;;;;;;;;4996492;28;20801;-60
2023/07/28 13:39:34;;;;;;;2.23;2.13;;;;;;;;;;4996520;28;20452;-60
2023/07/28 13:42:00;;;;;;;2.17;2.17;;;;;;;;;;4996259;28;20417;-60
2023/07/28 13:44:26;;;;;;;2.20;2.20;;;;;;;;;;4996525;28;20445;-60
2023/07/28 13:46:52;;;;;;;2.73;2.73;;;;;;;;;;4994637;28;20433;-60
2023/07/28 13:49:18;;;;;;;2.20;2.20;;;;;;;;;;4996373;28;20453;-60
2023/07/28 13:51:44;;;;;;;2.37;2.27;;;;;;;;;;4996258;28;20425;-60
2023/07/28 13:54:12;;;;;;;2.27;2.17;;;;;;;;;;4995928;28;20480;-60
2023/07/28 13:56:41;;;;;;;1.90;1.83;;;;;;;;;;4996099;28;20762;-60
2023/07/28 13:59:07;;;;;;;1.73;1.73;;;;;;;;;;4996188;28;20414;-59
2023/07/28 14:01:33;;;;;;;2.07;1.90;;;;;;;;;;4995284;28;20448;-60
2023/07/28 14:03:59;;;;;;;1.60;1.60;;;;;;;;;;4995832;28;20414;-60
2023/07/28 14:06:24;;;;;;;1.53;1.53;;;;;;;;;;4996211;28;20473;-60
2023/07/28 14:08:50;;;;;;;1.87;1.67;;;;;;;;;;4995607;28;20421;-59
2023/07/28 14:11:16;;;;;;;2.20;2.20;;;;;;;;;;4994933;28;20479;-60
2023/07/28 14:13:42;;;;;;;1.30;1.30;;;;;;;;;;4994536;28;20877;-60
2023/07/28 14:16:10;;;;;;;1.23;1.23;;;;;;;;;;4995180;28;20420;-60
2023/07/28 14:18:36;;;;;;;1.30;1.20;;;;;;;;;;4995390;28;20430;-59
2023/07/28 14:21:04;;;;;;;1.37;1.27;;;;;;;;;;4995240;28;20465;-60
2023/07/28 14:23:30;;;;;;;2.20;1.23;;;;;;;;;;4995165;28;20441;-59
2023/07/28 14:25:57;;;;;;;1.47;0.90;;;;;;;;;;4995669;28;20421;-59
2023/07/28 14:28:23;;;;;;;1.10;1.10;;;;;;;;;;4995732;28;20420;-59
2023/07/28 14:30:52;;;;;;;2.20;1.10;;;;;;;;;;4993853;28;20421;-59
2023/07/28 14:33:18;;;;;;;1.00;1.00;;;;;;;;;;4995618;28;20451;-59
2023/07/28 14:35:45;;;;;;;1.03;1.03;;;;;;;;;;4993970;28;20424;-59
2023/07/28 14:38:11;;;;;;;1.20;1.00;;;;;;;;;;4995464;28;20493;-59
2023/07/28 14:40:37;;;;;;;2.30;1.00;;;;;;;;;;4995260;28;20441;-59
2023/07/28 14:43:04;;;;;;;1.07;1.07;;;;;;;;;;4993895;28;20426;-60
2023/07/28 14:45:33;;;;;;;1.37;1.27;;;;;;;;;;4995155;28;20444;-59
2023/07/28 14:48:00;;;;;;;1.60;1.50;;;;;;;;;;4994962;28;20433;-59
2023/07/28 14:50:28;;;;;;;1.60;1.50;;;;;;;;;;4994938;28;20815;-61